Arm, Mississippi
Current Conditions -  °F | °C
As of 10:15 AM on Monday 24 Nov 2014 (Local Time) from K1R7 Reporting Station
Few Clouds Few Clouds  
Wind Chill: 14°   Ceiling: Unl
Heat Index: 14°   Visibility: 10mi
Dew Point:   Wind: 9mph
Humidity: 63%   Direction: 280°W
Pressure: 29.95"   Gusts: NA
Location:  31.5868°N, 90.03°W
Report Text: K1R7 241615Z AUTO 28008KT 10SM FEW025 14/07 A2995 RMK AO2
Loading
Personal Weather Stations






























Interactive Weather Map New forecast layout! Learn more

10-Day Weather Forecast

Advertisements
Track Severe Weather on mobile